createdAt,value
2017-12-10T00:02:15.974Z,11.32
2017-12-10T00:04:43.904Z,10.85
2017-12-10T00:07:10.944Z,12.15
2017-12-10T00:09:37.366Z,11.50
2017-12-10T00:12:03.646Z,10.65
2017-12-10T00:14:29.928Z,11.23
2017-12-10T00:16:56.915Z,11.88
2017-12-10T00:19:23.908Z,12.75
2017-12-10T00:21:50.194Z,13.73
2017-12-10T00:24:17.185Z,12.70
2017-12-10T00:26:43.467Z,13.73
2017-12-10T00:29:09.719Z,12.35
2017-12-10T00:31:36.013Z,12.70
2017-12-10T00:34:02.257Z,12.48
2017-12-10T00:36:28.504Z,13.27
2017-12-10T00:38:55.568Z,14.60
2017-12-10T00:41:21.870Z,14.18
2017-12-10T00:43:48.969Z,13.65
2017-12-10T00:46:15.647Z,12.88
2017-12-10T00:48:42.733Z,13.95
2017-12-10T00:51:08.981Z,14.50
2017-12-10T00:53:35.222Z,13.77
2017-12-10T00:56:02.214Z,14.35
2017-12-10T00:58:28.424Z,14.65
2017-12-10T01:00:54.676Z,15.10
2017-12-10T01:03:20.945Z,13.18
2017-12-10T01:05:47.229Z,13.38
2017-12-10T01:08:13.510Z,14.50
2017-12-10T01:10:39.806Z,15.15
2017-12-10T01:13:06.094Z,15.45
2017-12-10T01:15:32.345Z,13.98
2017-12-10T01:17:59.365Z,15.40
2017-12-10T01:20:25.651Z,14.55
2017-12-10T01:22:52.672Z,14.73
2017-12-10T01:25:18.959Z,14.85
2017-12-10T01:27:45.233Z,16.10
2017-12-10T01:30:11.482Z,14.80
2017-12-10T01:32:37.712Z,15.27
2017-12-10T01:35:03.948Z,16.80
2017-12-10T01:37:30.177Z,16.73
2017-12-10T01:39:56.455Z,15.45
2017-12-10T01:42:22.671Z,15.73
2017-12-10T01:44:49.725Z,16.05
2017-12-10T01:47:16.046Z,16.00
2017-12-10T01:49:42.274Z,15.30
2017-12-10T01:52:08.513Z,15.68
2017-12-10T01:54:34.774Z,14.35
2017-12-10T01:57:00.980Z,14.00
2017-12-10T01:59:27.184Z,13.82
2017-12-10T02:01:53.426Z,15.50
2017-12-10T02:04:19.693Z,15.20
2017-12-10T02:06:45.916Z,15.43
2017-12-10T02:09:12.203Z,14.27
2017-12-10T02:11:39.152Z,15.00
2017-12-10T02:14:06.103Z,16.27
2017-12-10T02:16:32.439Z,14.90
2017-12-10T02:18:58.650Z,14.48
2017-12-10T02:21:24.889Z,14.70
2017-12-10T02:23:51.149Z,14.07
2017-12-10T02:26:18.116Z,14.65
2017-12-10T02:28:44.339Z,15.95
2017-12-10T02:31:11.339Z,14.40
2017-12-10T02:33:37.598Z,14.10
2017-12-10T02:36:03.848Z,15.45
2017-12-10T02:38:30.819Z,15.50
2017-12-10T02:40:57.757Z,14.40
2017-12-10T02:43:24.706Z,16.12
2017-12-10T02:45:51.775Z,15.30
2017-12-10T02:48:18.090Z,14.98
2017-12-10T02:50:44.359Z,14.87
2017-12-10T02:53:10.674Z,16.33
2017-12-10T02:55:36.954Z,15.77
2017-12-10T02:58:03.187Z,15.50
2017-12-10T03:00:29.455Z,14.70
2017-12-10T03:02:55.727Z,16.37
2017-12-10T03:05:21.974Z,16.85
2017-12-10T03:07:48.250Z,16.80
2017-12-10T03:10:14.499Z,14.85
2017-12-10T03:12:40.747Z,14.50
2017-12-10T03:15:07.033Z,16.75
2017-12-10T03:17:33.239Z,16.40
2017-12-10T03:19:59.509Z,16.12
2017-12-10T03:22:25.775Z,16.15
2017-12-10T03:24:51.998Z,14.70
2017-12-10T03:27:18.995Z,14.55
2017-12-10T03:29:45.240Z,14.07
2017-12-10T03:32:11.504Z,14.77
2017-12-10T03:34:37.727Z,13.88
2017-12-10T03:37:04.703Z,14.70
2017-12-10T03:39:30.906Z,13.88
2017-12-10T03:41:57.869Z,15.00
2017-12-10T03:44:24.093Z,14.82
2017-12-10T03:46:51.291Z,13.75
2017-12-10T03:49:18.540Z,14.63
2017-12-10T03:51:44.776Z,13.73
2017-12-10T03:54:11.755Z,15.50
2017-12-10T03:56:38.728Z,13.68
2017-12-10T03:59:05.011Z,14.02
2017-12-10T04:01:31.242Z,13.77
2017-12-10T04:03:57.472Z,14.63
2017-12-10T04:06:23.758Z,12.48
2017-12-10T04:08:50.712Z,12.88
2017-12-10T04:11:17.710Z,13.77
2017-12-10T04:13:43.971Z,13.35
2017-12-10T04:16:10.202Z,13.60
2017-12-10T04:18:36.398Z,14.05
2017-12-10T04:21:02.661Z,14.02
2017-12-10T04:23:28.945Z,13.77
2017-12-10T04:25:55.218Z,13.45
2017-12-10T04:28:21.490Z,12.63
2017-12-10T04:30:47.782Z,14.30
2017-12-10T04:33:14.030Z,13.10
2017-12-10T04:35:40.277Z,13.05
2017-12-10T04:38:06.569Z,13.48
2017-12-10T04:40:32.784Z,13.60
2017-12-10T04:42:59.745Z,13.20
2017-12-10T04:45:25.974Z,13.30
2017-12-10T04:47:55.470Z,14.70
2017-12-10T04:50:21.895Z,12.98
2017-12-10T04:52:48.901Z,12.65
2017-12-10T04:55:15.112Z,13.80
2017-12-10T04:57:41.434Z,13.32
2017-12-10T05:00:07.637Z,14.27
2017-12-10T05:02:33.850Z,14.75
2017-12-10T05:05:00.944Z,14.40
2017-12-10T05:07:27.938Z,12.82
2017-12-10T05:09:54.193Z,13.80
2017-12-10T05:12:21.281Z,13.45
2017-12-10T05:14:47.503Z,14.05
2017-12-10T05:17:13.744Z,12.45
2017-12-10T05:19:40.005Z,13.52
2017-12-10T05:22:06.985Z,12.37
2017-12-10T05:24:33.216Z,13.25
2017-12-10T05:26:59.524Z,13.00
2017-12-10T05:29:26.481Z,13.43
2017-12-10T05:31:52.723Z,13.60
2017-12-10T05:34:18.978Z,13.10
2017-12-10T05:36:45.253Z,12.98
2017-12-10T05:39:11.512Z,13.07
2017-12-10T05:41:38.496Z,13.38
2017-12-10T05:44:04.752Z,13.77
2017-12-10T05:46:31.001Z,13.52
2017-12-10T05:48:57.411Z,13.20
2017-12-10T05:51:23.653Z,14.10
2017-12-10T05:53:49.881Z,12.98
2017-12-10T05:56:16.873Z,13.27
2017-12-10T05:58:43.105Z,12.80
2017-12-10T06:01:09.344Z,13.45
2017-12-10T06:03:35.791Z,13.02
2017-12-10T06:06:02.000Z,13.07
2017-12-10T06:08:28.217Z,13.55
2017-12-10T06:10:54.509Z,14.00
2017-12-10T06:13:20.818Z,14.73
2017-12-10T06:15:47.029Z,12.80
2017-12-10T06:18:13.268Z,13.55
2017-12-10T06:20:39.504Z,14.10
2017-12-10T06:23:05.754Z,14.05
2017-12-10T06:25:31.985Z,13.30
2017-12-10T06:27:58.233Z,13.05
2017-12-10T06:30:24.480Z,13.90
2017-12-10T06:32:51.578Z,14.80
2017-12-10T06:35:17.803Z,15.15
2017-12-10T06:37:44.045Z,14.35
2017-12-10T06:40:10.302Z,13.80
2017-12-10T06:42:36.538Z,14.80
2017-12-10T06:45:02.801Z,15.25
2017-12-10T06:47:29.037Z,13.32
2017-12-10T06:49:55.392Z,13.95
2017-12-10T06:52:21.698Z,14.43
2017-12-10T06:54:47.968Z,14.23
2017-12-10T06:57:14.955Z,14.98
2017-12-10T06:59:41.135Z,14.32
2017-12-10T07:02:07.334Z,14.40
2017-12-10T07:04:33.538Z,14.45
2017-12-10T07:06:59.766Z,14.70
2017-12-10T07:09:26.758Z,13.30
2017-12-10T07:11:53.215Z,13.55
2017-12-10T07:14:19.556Z,14.63
2017-12-10T07:16:46.068Z,15.23
2017-12-10T07:19:12.809Z,14.05
2017-12-10T07:21:39.370Z,13.35
2017-12-10T07:24:05.932Z,13.75
2017-12-10T07:26:32.395Z,13.95
2017-12-10T07:28:58.827Z,14.55
2017-12-10T07:31:25.861Z,12.82
2017-12-10T07:33:52.212Z,13.60
2017-12-10T07:36:18.623Z,13.30
2017-12-10T07:38:45.827Z,15.20
2017-12-10T07:41:12.177Z,15.20
2017-12-10T07:43:39.504Z,15.02
2017-12-10T07:46:05.994Z,13.70
2017-12-10T07:48:32.453Z,14.13
2017-12-10T07:50:59.701Z,12.75
2017-12-10T07:53:26.789Z,13.62
2017-12-10T07:55:54.469Z,13.25
2017-12-10T07:58:22.721Z,14.20
2017-12-10T08:00:50.265Z,13.70
2017-12-10T08:03:17.067Z,14.60
2017-12-10T08:05:44.153Z,14.50
2017-12-10T08:08:11.965Z,14.10
2017-12-10T08:10:39.798Z,14.70
2017-12-10T08:13:09.719Z,13.02
2017-12-10T08:15:36.205Z,13.10
2017-12-10T08:18:02.416Z,13.48
2017-12-10T08:20:29.410Z,13.32
2017-12-10T08:22:56.403Z,15.63
2017-12-10T08:25:22.633Z,13.40
2017-12-10T08:27:48.910Z,14.40
2017-12-10T08:30:15.147Z,13.13
2017-12-10T08:32:42.180Z,15.25
2017-12-10T08:35:08.419Z,13.73
2017-12-10T08:37:34.758Z,15.30
2017-12-10T08:40:01.748Z,14.48
2017-12-10T08:42:28.024Z,13.55
2017-12-10T08:44:56.333Z,14.30
2017-12-10T08:47:22.634Z,16.87
2017-12-10T08:49:49.984Z,16.17
2017-12-10T08:52:16.421Z,14.68
2017-12-10T08:54:42.883Z,12.05
2017-12-10T08:57:09.175Z,12.05
2017-12-10T08:59:35.574Z,11.80
2017-12-10T09:02:01.840Z,12.85
2017-12-10T09:04:28.059Z,13.15
2017-12-10T09:06:55.091Z,14.05
2017-12-10T09:09:21.370Z,11.65
2017-12-10T09:11:47.668Z,11.60
2017-12-10T09:14:13.994Z,10.45
2017-12-10T09:16:41.021Z,10.55
2017-12-10T09:19:07.282Z,8.88
2017-12-10T09:21:33.580Z,9.77
2017-12-10T09:23:59.790Z,8.48
2017-12-10T09:26:26.098Z,8.88
2017-12-10T09:28:52.362Z,7.95
2017-12-10T09:31:19.384Z,7.57
2017-12-10T09:33:45.685Z,8.70
2017-12-10T09:36:11.968Z,6.95
2017-12-10T09:38:38.245Z,7.68
2017-12-10T09:41:04.596Z,6.87
2017-12-10T09:43:31.535Z,6.85
2017-12-10T09:45:57.842Z,6.20
2017-12-10T09:48:24.904Z,7.15
2017-12-10T09:50:51.238Z,6.53
2017-12-10T09:53:18.406Z,7.35
2017-12-10T09:55:44.782Z,7.18
2017-12-10T09:58:11.153Z,7.07
2017-12-10T10:00:38.404Z,6.43
2017-12-10T10:03:05.481Z,6.05
2017-12-10T10:05:32.436Z,6.07
2017-12-10T10:07:58.701Z,6.47
2017-12-10T10:10:25.018Z,5.50
2017-12-10T10:12:51.395Z,5.70
2017-12-10T10:15:17.697Z,6.20
2017-12-10T10:17:43.957Z,5.60
2017-12-10T10:20:10.238Z,6.35
2017-12-10T10:22:37.353Z,5.32
2017-12-10T10:25:03.636Z,6.65
2017-12-10T10:27:31.577Z,4.78
2017-12-10T10:29:58.716Z,5.20
2017-12-10T10:32:25.022Z,6.10
2017-12-10T10:34:52.336Z,5.37
2017-12-10T11:06:12.980Z,5.72
2017-12-10T11:08:40.331Z,5.05
2017-12-10T11:11:06.650Z,5.43
2017-12-10T11:13:32.868Z,5.60
2017-12-10T11:15:59.093Z,5.40
2017-12-10T11:18:26.040Z,5.45
2017-12-10T11:20:52.472Z,6.10
2017-12-10T11:23:18.725Z,5.40
2017-12-10T11:25:45.312Z,5.35
2017-12-10T11:28:12.411Z,5.25
2017-12-10T11:30:38.855Z,5.18
2017-12-10T11:33:05.096Z,5.43
2017-12-10T11:35:32.091Z,6.05
2017-12-10T11:37:58.677Z,4.70
2017-12-10T11:40:24.944Z,5.18
2017-12-10T11:45:55.614Z,4.15
2017-12-10T11:48:21.878Z,4.55
2017-12-10T11:51:12.698Z,5.15
2017-12-10T11:53:39.714Z,4.43
2017-12-10T11:56:06.218Z,4.32
2017-12-10T11:58:32.599Z,4.57
2017-12-10T12:00:59.551Z,3.85
2017-12-10T12:03:27.285Z,4.03
2017-12-10T12:05:53.570Z,4.18
2017-12-10T12:08:19.805Z,3.67
2017-12-10T12:10:46.272Z,3.75
2017-12-10T12:13:13.253Z,3.75
2017-12-10T12:15:40.019Z,4.30
2017-12-10T12:18:06.526Z,4.10
2017-12-10T12:20:32.898Z,3.28
2017-12-10T12:22:59.225Z,3.65
2017-12-10T12:25:25.499Z,3.92
2017-12-10T12:27:51.740Z,5.15
2017-12-10T12:30:18.976Z,3.65
2017-12-10T12:32:45.307Z,3.30
2017-12-10T12:35:12.880Z,3.45
2017-12-10T12:37:39.185Z,3.60
2017-12-10T12:40:05.456Z,4.55
2017-12-10T12:42:31.928Z,3.92
2017-12-10T12:44:58.218Z,3.90
2017-12-10T12:47:24.455Z,5.25
2017-12-10T12:49:50.729Z,5.28
2017-12-10T12:52:17.092Z,6.35
2017-12-10T12:54:43.472Z,4.95
2017-12-10T12:57:10.584Z,5.30
2017-12-10T12:59:36.831Z,4.45
2017-12-10T13:02:03.040Z,4.93
2017-12-10T13:04:30.016Z,4.40
2017-12-10T13:06:56.193Z,4.72
2017-12-10T13:09:22.376Z,4.68
2017-12-10T13:11:48.768Z,4.70
2017-12-10T13:14:15.768Z,4.62
2017-12-10T13:16:42.147Z,3.95
2017-12-10T13:19:08.942Z,4.80
2017-12-10T13:21:35.210Z,4.22
2017-12-10T13:24:01.439Z,4.25
2017-12-10T13:26:27.705Z,4.70
2017-12-10T13:28:53.998Z,4.47
2017-12-10T13:31:20.225Z,5.40
2017-12-10T13:33:46.531Z,6.43
2017-12-10T13:36:12.787Z,4.47
2017-12-10T13:38:39.011Z,4.25
2017-12-10T13:41:06.325Z,5.12
2017-12-10T13:43:32.917Z,5.10
2017-12-10T13:46:00.060Z,4.47
2017-12-10T13:48:26.536Z,4.93
2017-12-10T13:50:53.192Z,5.10
2017-12-10T13:53:20.850Z,5.32
2017-12-10T13:55:47.922Z,4.65
2017-12-10T13:58:14.222Z,4.82
2017-12-10T14:00:42.156Z,4.95
2017-12-10T14:03:09.140Z,4.22
2017-12-10T14:05:36.153Z,5.37
2017-12-10T14:08:02.393Z,5.57
2017-12-10T14:10:29.565Z,5.18
2017-12-10T14:12:56.098Z,7.03
2017-12-10T14:15:22.353Z,5.82
2017-12-10T14:17:49.361Z,6.10
2017-12-10T14:20:15.604Z,4.68
2017-12-10T14:22:41.901Z,4.20
2017-12-10T14:25:08.331Z,5.60
2017-12-10T14:27:34.633Z,4.40
2017-12-10T14:30:00.841Z,4.47
2017-12-10T14:32:27.221Z,4.10
2017-12-10T14:34:54.188Z,4.25
2017-12-10T14:37:20.433Z,4.40
2017-12-10T14:39:46.673Z,3.97
2017-12-10T14:42:12.872Z,3.62
2017-12-10T14:44:39.081Z,4.45
2017-12-10T14:47:05.313Z,4.28
2017-12-10T14:49:31.579Z,4.62
2017-12-10T14:51:57.873Z,3.60
2017-12-10T14:54:24.090Z,3.90
2017-12-10T14:56:50.319Z,4.53
2017-12-10T14:59:16.555Z,4.25
2017-12-10T15:01:42.753Z,3.97
2017-12-10T15:04:09.813Z,4.10
2017-12-10T15:06:36.028Z,4.25
2017-12-10T15:09:03.041Z,4.35
2017-12-10T15:11:29.421Z,4.07
2017-12-10T15:13:56.156Z,5.53
2017-12-10T15:16:22.353Z,3.50
2017-12-10T15:18:48.649Z,3.92
2017-12-10T15:21:16.348Z,3.85
2017-12-10T15:23:42.593Z,4.53
2017-12-10T15:26:08.886Z,4.00
2017-12-10T15:28:35.168Z,4.28
2017-12-10T15:31:01.425Z,4.20
2017-12-10T15:33:28.713Z,4.03
2017-12-10T15:35:54.952Z,4.40
2017-12-10T15:38:21.929Z,4.35
2017-12-10T15:40:48.860Z,4.30
2017-12-10T15:43:16.057Z,4.60
2017-12-10T15:45:42.316Z,4.32
2017-12-10T15:48:08.528Z,4.00
2017-12-10T15:50:34.816Z,4.55
2017-12-10T15:53:01.225Z,4.03
2017-12-10T15:55:27.443Z,4.93
2017-12-10T15:57:53.653Z,4.18
2017-12-10T16:00:19.973Z,4.20
2017-12-10T16:02:46.966Z,4.85
2017-12-10T16:05:13.269Z,4.47
2017-12-10T16:07:39.560Z,4.50
2017-12-10T16:10:05.940Z,5.72
2017-12-10T16:12:32.927Z,3.80
2017-12-10T16:15:00.219Z,4.07
2017-12-10T16:17:26.438Z,4.05
2017-12-10T16:19:52.712Z,4.95
2017-12-10T16:22:19.723Z,3.75
2017-12-10T16:24:45.997Z,3.65
2017-12-10T16:27:12.982Z,5.70
2017-12-10T16:29:40.024Z,4.30
2017-12-10T16:32:07.689Z,4.55
2017-12-10T16:34:33.928Z,4.20
2017-12-10T16:37:00.897Z,4.30
2017-12-10T16:39:27.115Z,4.20
2017-12-10T16:42:02.231Z,4.37
2017-12-10T16:44:29.701Z,4.45
2017-12-10T16:46:56.708Z,3.55
2017-12-10T16:49:22.932Z,3.90
2017-12-10T16:51:50.238Z,6.93
2017-12-10T16:54:17.412Z,5.45
2017-12-10T16:56:43.889Z,4.20
2017-12-10T16:59:14.336Z,3.92
2017-12-10T17:01:40.970Z,3.22
2017-12-10T17:04:07.299Z,3.95
2017-12-10T17:06:33.674Z,4.60
2017-12-10T17:09:02.188Z,3.97
2017-12-10T17:11:29.402Z,3.97
2017-12-10T17:13:55.835Z,4.47
2017-12-10T17:16:22.616Z,4.50
2017-12-10T17:18:49.221Z,4.45
2017-12-10T17:21:16.326Z,3.92
2017-12-10T17:23:42.617Z,4.25
2017-12-10T17:26:09.073Z,4.50
2017-12-10T17:28:35.442Z,4.30
2017-12-10T17:31:02.402Z,4.35
2017-12-10T17:33:29.673Z,4.15
2017-12-10T17:35:56.134Z,4.10
2017-12-10T17:38:22.349Z,4.12
2017-12-10T17:40:48.661Z,5.62
2017-12-10T17:43:14.881Z,4.43
2017-12-10T17:45:41.081Z,4.70
2017-12-10T17:48:08.063Z,5.05
2017-12-10T17:50:34.232Z,5.28
2017-12-10T17:53:01.153Z,4.40
2017-12-10T17:55:27.402Z,4.68
2017-12-10T17:57:53.654Z,4.30
2017-12-10T18:00:20.684Z,4.10
2017-12-10T18:02:47.628Z,4.40
2017-12-10T18:05:14.026Z,5.25
2017-12-10T18:07:40.250Z,4.82
2017-12-10T18:10:06.520Z,4.78
2017-12-10T18:12:32.781Z,3.75
2017-12-10T18:14:59.084Z,4.53
2017-12-10T18:17:26.969Z,4.00
2017-12-10T18:19:53.189Z,4.35
2017-12-10T18:22:19.365Z,3.75
2017-12-10T18:24:45.565Z,3.35
2017-12-10T18:27:11.784Z,3.72
2017-12-10T18:29:38.025Z,3.50
2017-12-10T18:32:04.270Z,3.75
2017-12-10T18:34:30.506Z,3.30
2017-12-10T18:36:56.785Z,3.58
2017-12-10T18:39:23.036Z,3.05
2017-12-10T18:41:49.221Z,3.55
2017-12-10T18:44:15.424Z,3.20
2017-12-10T18:46:41.612Z,3.55
2017-12-10T18:49:08.537Z,3.40
2017-12-10T18:51:34.840Z,3.10
2017-12-10T18:54:01.103Z,3.70
2017-12-10T18:56:27.313Z,3.40
2017-12-10T18:58:53.481Z,3.47
2017-12-10T19:01:20.460Z,3.62
2017-12-10T19:06:21.269Z,3.75
2017-12-10T19:08:47.506Z,3.50
2017-12-10T19:11:13.792Z,4.00
2017-12-10T19:13:40.037Z,3.53
2017-12-10T19:16:06.321Z,3.67
2017-12-10T19:18:32.914Z,3.75
2017-12-10T19:20:59.297Z,3.62
2017-12-10T19:23:25.487Z,3.85
2017-12-10T19:25:52.418Z,4.20
2017-12-10T19:28:19.431Z,3.78
2017-12-10T19:33:14.038Z,3.92
2017-12-10T19:35:40.276Z,4.12
2017-12-10T19:38:06.526Z,3.90
2017-12-10T19:40:33.440Z,3.83
2017-12-10T19:42:59.653Z,3.83
2017-12-10T19:45:26.581Z,4.00
2017-12-10T19:47:52.777Z,4.57
2017-12-10T19:50:19.006Z,4.43
2017-12-10T19:52:45.204Z,3.45
2017-12-10T19:55:12.152Z,3.67
2017-12-10T19:57:39.180Z,3.22
2017-12-10T20:00:06.152Z,3.97
2017-12-10T20:02:33.101Z,3.22
2017-12-10T20:04:59.320Z,3.70
2017-12-10T20:07:25.539Z,3.90
2017-12-10T20:09:51.712Z,3.40
2017-12-10T20:12:18.838Z,4.00
2017-12-10T20:14:45.017Z,3.80
2017-12-10T20:17:11.217Z,3.58
2017-12-10T20:19:38.980Z,4.05
2017-12-10T20:22:05.180Z,4.15
2017-12-10T20:24:31.393Z,4.57
2017-12-10T20:26:57.625Z,4.20
2017-12-10T20:29:23.859Z,4.12
2017-12-10T20:31:50.148Z,4.00
2017-12-10T20:34:16.460Z,3.95
2017-12-10T20:36:42.722Z,4.65
2017-12-10T20:39:09.756Z,3.70
2017-12-10T20:41:36.857Z,5.20
2017-12-10T20:44:03.106Z,4.22
2017-12-10T20:46:29.345Z,4.50
2017-12-10T20:48:56.392Z,42.38
2017-12-10T20:51:22.578Z,5.15
2017-12-10T20:53:48.781Z,4.18
2017-12-10T20:56:15.097Z,4.10
2017-12-10T20:58:41.311Z,4.00
2017-12-10T21:01:07.529Z,5.40
2017-12-10T21:03:33.879Z,3.95
2017-12-10T21:06:00.836Z,4.03
2017-12-10T21:08:27.345Z,4.82
2017-12-10T21:10:54.650Z,4.45
2017-12-10T21:13:20.857Z,4.30
2017-12-10T21:15:47.813Z,3.70
2017-12-10T21:18:14.810Z,3.80
2017-12-10T21:20:41.290Z,4.97
2017-12-10T21:23:07.506Z,3.80
2017-12-10T21:25:33.745Z,4.57
2017-12-10T21:28:00.737Z,4.05
2017-12-10T21:30:27.694Z,4.32
2017-12-10T21:32:54.648Z,3.70
2017-12-10T21:35:20.878Z,4.30
2017-12-10T21:37:47.848Z,3.53
2017-12-10T21:40:15.981Z,4.15
2017-12-10T21:42:42.215Z,3.72
2017-12-10T21:45:09.184Z,3.60
2017-12-10T21:47:36.184Z,4.12
2017-12-10T21:50:02.392Z,4.00
2017-12-10T21:52:28.612Z,4.20
2017-12-10T21:54:54.902Z,3.72
2017-12-10T21:57:21.141Z,3.87
2017-12-10T21:59:47.386Z,3.25
2017-12-10T22:02:13.714Z,4.20
2017-12-10T22:04:39.908Z,4.18
2017-12-10T22:07:06.134Z,3.92
2017-12-10T22:09:32.365Z,3.80
2017-12-10T22:11:59.296Z,4.57
2017-12-10T22:14:25.469Z,3.92
2017-12-10T22:16:51.725Z,4.90
2017-12-10T22:19:17.928Z,4.18
2017-12-10T22:21:44.394Z,4.20
2017-12-10T22:24:10.647Z,3.80
2017-12-10T22:26:37.561Z,3.90
2017-12-10T22:29:03.785Z,3.83
2017-12-10T22:31:30.052Z,4.15
2017-12-10T22:33:56.245Z,5.30
2017-12-10T22:36:23.182Z,4.20
2017-12-10T22:38:49.410Z,5.40
2017-12-10T22:41:15.585Z,4.55
2017-12-10T22:43:41.777Z,4.35
2017-12-10T22:46:07.990Z,3.60
2017-12-10T22:48:34.185Z,3.72
2017-12-10T22:51:00.554Z,4.10
2017-12-10T22:53:26.754Z,3.60
2017-12-10T22:55:53.011Z,3.95
2017-12-10T22:58:19.310Z,3.92
2017-12-10T23:00:46.385Z,3.53
2017-12-10T23:03:13.325Z,3.55
2017-12-10T23:05:39.537Z,3.35
2017-12-10T23:08:07.368Z,4.03
2017-12-10T23:10:33.581Z,3.50
2017-12-10T23:12:59.809Z,3.30
2017-12-10T23:15:26.017Z,3.47
2017-12-10T23:17:52.238Z,3.53
2017-12-10T23:20:24.476Z,2.80
2017-12-10T23:22:51.578Z,3.80
2017-12-10T23:25:17.811Z,3.28
2017-12-10T23:27:44.764Z,4.05
2017-12-10T23:30:11.707Z,3.50
2017-12-10T23:32:37.930Z,3.60
2017-12-10T23:35:04.882Z,3.00
2017-12-10T23:37:31.109Z,3.42
2017-12-10T23:39:57.308Z,3.70
2017-12-10T23:42:23.545Z,3.30
2017-12-10T23:44:49.800Z,3.60
2017-12-10T23:47:16.033Z,3.72
2017-12-10T23:49:42.269Z,3.47
2017-12-10T23:52:08.499Z,3.00
2017-12-10T23:54:34.701Z,2.97
2017-12-10T23:57:00.942Z,3.92
2017-12-10T23:59:27.157Z,3.60
